East Jordan, Michigan
Current Conditions -  °F | °C
As of 7:14 PM on Saturday 20 Dec 2014 (Local Time) from KCVX Reporting Station
Overcast Overcast  
Wind Chill: 28°   Ceiling: 3000
Heat Index: 28°   Visibility: 10mi
Dew Point: 24°   Wind: 3mph
Humidity: 86%   Direction: 170°S
Pressure: 30.28"   Gusts: NA
Location:  45.16°N, 85.12°W
Report Text: KCVX 210014Z AUTO 17003KT 10SM OVC030 M02/M05 A3028 RMK AO2 T10251046
Loading
Personal Weather Stations






























Interactive Weather Map New forecast layout! Learn more

10-Day Weather Forecast

Advertisements
Track Severe Weather on mobile